ヘネラル・マリアノ・エソコベド国際空港の過去48時間の天気

ヘネラル・マリアノ・エソコベド国際空港 (Monterrey / Gen Maria)

現在時刻: 9/16 10:09 CDT (9/16 15:09 UTC) 以下の時間は現地時間です。

過去48時間のMETAR気象情報
時間 風向 風速(m/s) 視程 気温(℃) 湿度(%) 気圧(hPa) 天気現象
16 09:40 北西 2 10km以上 26 79 1017
16 08:40 静穏 0 10km以上 24 94 1017
16 07:41 北西 2 10km以上 - - 1016
16 06:40 静穏 0 10km以上 23 83 1016
16 05:40 静穏 0 10km以上 23 89 1016
16 04:41 静穏 0 10km以上 22 94 1016
16 03:40 静穏 0 10km以上 22 94 1016
16 02:40 静穏 0 10km以上 22 88 1016
16 01:40 東南東 2 10km以上 23 83 1017
16 00:40 2 10km以上 24 78 1017
15 23:40 南南東 3 10km以上 24 78 1017
15 22:40 東南東 3 10km以上 24 83 1017
15 21:40 3 10km以上 26 74 1016
15 20:42 東北東 2 10km以上 27 70 1015
15 19:41 南東 3 10km以上 28 62 1014
15 18:40 3 10km以上 31 46 1014
15 17:40 静穏 0 10km以上 31 46 1014
15 16:40 静穏 0 10km以上 31 46 1015
15 15:42 東南東 4 10km以上 31 49 1015
15 14:40 静穏 0 10km以上 29 58 1016
15 13:40 3 10km以上 31 49 1017
15 12:41 静穏 0 10km以上 29 58 1018
15 11:47 静穏 0 10km以上 28 62 1018
15 10:40 西 2 10km以上 27 70 1018
15 09:40 静穏 0 10km以上 25 78 1018
15 08:46 北北西 2 10km以上 23 83 1017
15 07:40 西 3 10km以上 22 94 1017
15 06:45 西北西 3 10km以上 - - 1017
15 05:47 静穏 0 10km以上 - - 1017
15 04:47 静穏 0 10km以上 21 100 1017
15 03:40 西北西 2 10km以上 22 88 1017
15 02:44 静穏 0 10km以上 22 88 1018
15 01:40 南南東 3 10km以上 24 78 1018
15 00:50 南南西 3 10km以上 23 83 1019
14 23:44 2 10km以上 24 78 1019
14 22:43 東北東 4 10km以上 25 74 1019
14 21:43 静穏 0 10km以上 26 70 1018
14 20:40 南東 3 10km以上 27 66 1017
14 19:44 南東 3 10km以上 28 62 1016
14 18:41 東北東 2 10km以上 30 55 1016
14 17:41 北東 2 10km以上 30 55 1016
14 16:40 3 10km以上 31 52 1016
14 15:42 東北東 2 10km以上 31 52 1017
14 14:40 静穏 0 10km以上 30 55 1018
14 13:40 3 10km以上 30 59 1019
14 12:40 東北東 3 10km以上 28 66 1020
14 11:40 3 10km以上 27 70 1020
14 10:40 東南東 2 10km以上 26 79 1020
MMMY 161440Z 32003KT 12SM SKC 26/22 A3002 RMK SLP/// 5/// 9//
MMMY 161340Z 00000KT 12SM SKC 24/23 A3002
MMMY 161241Z 32004KT 12SM SKC 23/// A3000
MMMY 161140Z 00000KT 12SM SKC 23/20 A3000 RMK SLP/// 5//// 9//
MMMY 161040Z 00000KT 7SM SKC 23/21 A2999 RMK HZY
MMMY 160941Z 00000KT 7SM BKN015 22/21 A3000 RMK 8/500 HZY
MMMY 160840Z 00000KT 7SM BKN015 22/21 A3001 RMK SLP/// 5//// 9// 8/500 HZY
MMMY 160740Z 00000KT 10SM SKC 22/20 A3001
MMMY 160640Z 11004KT 10SM SKC 23/20 A3002
MMMY 160540Z 17004KT 10SM FEW030 SCT050 24/20 A3002 RMK SLP/// 5//// 9// 8/500
MMMY 160440Z 15005KT 10SM SCT030 24/20 A3003 RMK 8/500
MMMY 160340Z 12005KT 10SM SKC 24/21 A3002
MMMY 160240Z 09005KT 10SM SKC 26/21 A3001 RMK SLP/// 5//// 9// ISOL SC
MMMY 160142Z 07004KT 12SM FEW030 27/21 A2998 RMK 8/500
MMMY 160041Z 13005KT 15SM FEW030 28/20 A2995 RMK 8/500
MMMY 152340Z 17005KT 15SM SKC 31/18 A2995 RMK SLP/// 5//// 9// ISOL CU
MMMY 152240Z 00000KT 15SM FEW040 31/18 A2995 RMK 8/500
MMMY 152140Z 00000KT 15SM SCT040 31/18 A2996 RMK 8/500
MMMY 152042Z 12007KT 15SM SCT040TCU 31/19 A2998 RMK SLP/// 5//// 9// 8/200
MMMY 151940Z 00000KT 15SM BKN040TCU 29/20 A3001 RMK 8/200 ISOL AC
MMMY 151840Z 10005KT 15SM SCT030TCU 31/19 A3003 RMK 8/200 ISOL AC
MMMY 151741Z 00000KT 12SM SCT030TCU 29/20 A3005 RMK SLP/// 5//// 9// 8/200
MMMY 151647Z 00000KT 12SM FEW030 28/20 A3006 RMK 8/100 MDT CU NE
MMMY 151540Z 27004KT 12SM SKC 27/21 A3006
MMMY 151440Z 00000KT 12SM SKC 25/21 A3005 RMK SLP/// 5//// 9//
MMMY 151346Z 33004KT 12SM SKC 23/20 A3003
MMMY 151240Z 27005KT 12SM SKC 22/21 A3003
MMMY 151145Z 29006KT 8SM SKC 23/// A3002 RMK SLP/// 5//// 9//
MMMY 151047Z 00000KT 8SM SKC 23/// A3002
MMMY 150947Z 00000KT 8SM SKC 21/21 A3002
MMMY 150840Z 30004KT 10SM SKC 22/20 A3003 RMK SLP/// 5//// 9//
MMMY 150744Z 00000KT 10SM SKC 22/20 A3005
MMMY 150640Z 16005KT 10SM FEW080 24/20 A3006 RMK 8/070
MMMY 150550Z 20005KT 10SM SCT080 23/20 A3008 RMK SLP/// 5//// 9// 8/070
MMMY 150444Z 10003KT 15SM SKC 24/20 A3008
MMMY 150343Z 06008KT 15SM SCT050 25/20 A3008 RMK 8/400
MMMY 150243Z 00000KT 15SM SKC 26/20 A3005 RMK SLP/// 5//// 9//
MMMY 150140Z 13005KT 12SM SKC 27/20 A3002
MMMY 150044Z 13005KT 15SM SKC 28/20 A3001
MMMY 142341Z 07004KT 15SM SKC 30/20 A3000 RMK SLP/// 5//// 9// ISOL CU
MMMY 142241Z 04003KT 15SM FEW030 30/20 A3001 RMK 8/500
MMMY 142140Z 09005KT 15SM SCT030TCU 31/20 A3001 RMK 8/200
MMMY 142042Z 06003KT 15SM SCT030TCU 31/20 A3004 RMK SLP/// 5//// 9// 8/200
MMMY 141940Z 00000KT 15SM SCT030TCU 30/20 A3006 RMK 8/200
MMMY 141840Z 10006KT 12SM SCT030TCU 30/21 A3009 RMK 8/200 PCPN E
MMMY 141740Z 06006KT 10SM SCT030CB 28/21 A3011 RMK SLP/// 5//// 9// 8/300 PCPN I QUAD
MMMY 141640Z 10006KT 10SM BKN035CB 27/21 A3013 RMK 8/300
MMMY 141540Z 11003KT 6SM BKN035TCU 26/22 A3013 RMK 8/200 HZY